Time;durP1;ratioP1;P1;durP2;ratioP2;P2;SDS_P1;SDS_P2;PMS_P1;PMS_P2;Temp;Humidity;BMP_temperature;BMP_pressure;BME280_temperature;BME280_humidity;BME280_pressure;Samples;Min_cycle;Max_cycle;Signal;HPM_P1;HPM_P2
2022/01/07 00:01:19;;;;;;;12.95;9.68;;;;;;;-0.44;76.98;94361.67;1769548;80;21113;-51
2022/01/07 00:03:48;;;;;;;14.25;9.60;;;;;;;-0.40;77.32;94357.03;1760875;80;21332;-51
2022/01/07 00:06:15;;;;;;;14.18;9.28;;;;;;;-0.36;77.24;94372.66;1721861;82;20990;-51
2022/01/07 00:08:41;;;;;;;17.82;11.53;;;;;;;-0.38;77.02;94380.38;1727691;82;21420;-53
2022/01/07 00:11:10;;;;;;;13.78;8.85;;;;;;;-0.39;77.44;94381.54;1706734;83;21011;-51
2022/01/07 00:13:38;;;;;;;13.80;9.03;;;;;;;-0.34;77.26;94380.58;1708298;83;21530;-51
2022/01/07 00:16:05;;;;;;;13.43;9.10;;;;;;;-0.38;77.26;94380.38;1699964;83;21169;-51
2022/01/07 00:18:33;;;;;;;17.57;10.70;;;;;;;-0.42;77.41;94375.56;1699466;83;20939;-51
2022/01/07 00:21:00;;;;;;;14.45;8.95;;;;;;;-0.44;77.49;94381.94;1704766;83;21152;-50
2022/01/07 00:23:31;;;;;;;11.60;8.35;;;;;;;-0.42;77.64;94382.31;1703162;83;21506;-51
2022/01/07 00:25:57;;;;;;;15.72;11.08;;;;;;;-0.40;77.55;94388.10;1705494;83;21503;-51
2022/01/07 00:28:27;;;;;;;11.33;8.45;;;;;;;-0.48;77.47;94387.89;1761473;80;21212;-51
2022/01/07 00:30:54;;;;;;;9.10;7.35;;;;;;;-0.54;77.57;94389.45;1757146;80;20972;-51
2022/01/07 00:33:20;;;;;;;8.40;7.35;;;;;;;-0.59;77.77;94389.84;1718015;82;20975;-51
2022/01/07 00:35:47;;;;;;;12.68;8.85;;;;;;;-0.62;77.93;94394.66;1696441;83;21038;-50
2022/01/07 00:38:14;;;;;;;18.25;11.18;;;;;;;-0.62;78.11;94406.81;1719861;83;20959;-50
2022/01/07 00:40:43;;;;;;;19.57;11.25;;;;;;;-0.64;78.03;94406.40;1662863;84;21192;-52
2022/01/07 00:43:10;;;;;;;9.60;7.78;;;;;;;-0.60;78.47;94406.61;1675038;83;20967;-52
2022/01/07 00:45:39;;;;;;;10.68;8.35;;;;;;;-0.57;78.26;94407.77;1733362;80;21081;-50
2022/01/07 00:48:07;;;;;;;19.37;11.00;;;;;;;-0.57;78.31;94422.03;1756873;80;20998;-51
2022/01/07 00:50:36;;;;;;;17.75;11.83;;;;;;;-0.55;78.17;94428.41;1755793;80;21015;-52
2022/01/07 00:53:02;;;;;;;33.63;16.77;;;;;;;-0.57;78.17;94423.39;1736275;80;21170;-51
2022/01/07 00:55:29;;;;;;;28.45;14.93;;;;;;;-0.54;78.22;94426.70;1755120;80;21125;-51
2022/01/07 00:58:01;;;;;;;18.32;10.95;;;;;;;-0.50;78.04;94426.67;1735773;80;21687;-50
2022/01/07 01:00:28;;;;;;;11.28;9.10;;;;;;;-0.50;77.90;94421.27;1765354;80;21002;-52
2022/01/07 01:02:55;;;;;;;13.93;9.13;;;;;;;-0.50;78.05;94422.06;1757302;80;21037;-50
2022/01/07 01:05:24;;;;;;;15.25;9.90;;;;;;;-0.46;77.77;94430.15;1724860;80;21115;-51
2022/01/07 01:07:53;;;;;;;13.65;9.90;;;;;;;-0.47;77.61;94429.95;1701347;82;20994;-51
2022/01/07 01:10:24;;;;;;;13.95;9.18;;;;;;;-0.48;77.79;94433.81;1764882;80;20982;-50
2022/01/07 01:12:55;;;;;;;13.90;10.05;;;;;;;-0.44;77.70;94443.47;1739046;81;20978;-50
2022/01/07 01:15:24;;;;;;;14.98;10.68;;;;;;;-0.45;77.55;94451.39;1726514;82;20983;-52
2022/01/07 01:17:51;;;;;;;17.90;11.18;;;;;;;-0.44;77.81;94454.88;1719597;82;21117;-52
2022/01/07 01:20:19;;;;;;;13.88;11.08;;;;;;;-0.35;77.96;94453.91;1723389;82;21065;-52
2022/01/07 01:22:46;;;;;;;16.90;12.23;;;;;;;-0.28;77.83;94457.95;1752645;80;21066;-51
2022/01/07 01:25:13;;;;;;;21.85;14.15;;;;;;;-0.21;77.63;94472.84;1765994;80;21466;-51
2022/01/07 01:27:44;;;;;;;20.40;11.83;;;;;;;-0.21;77.29;94467.44;1764614;80;21047;-51
2022/01/07 01:30:13;;;;;;;21.57;14.35;;;;;;;-0.25;77.06;94469.37;1752034;80;21168;-51
2022/01/07 01:32:39;;;;;;;18.87;12.25;;;;;;;-0.27;77.59;94467.04;1739567;80;21496;-51
2022/01/07 01:35:08;;;;;;;14.63;10.60;;;;;;;-0.21;77.39;94472.84;1759011;80;21061;-52
2022/01/07 01:37:34;;;;;;;16.42;10.28;;;;;;;-0.18;77.20;94481.52;1753380;80;21049;-50
2022/01/07 01:40:01;;;;;;;14.58;9.78;;;;;;;-0.23;76.91;94475.16;1759332;80;21034;-51
2022/01/07 01:42:31;;;;;;;12.88;8.85;;;;;;;-0.27;76.72;94485.95;1720128;81;21042;-52
2022/01/07 01:44:57;;;;;;;11.80;8.65;;;;;;;-0.31;76.73;94501.96;1722795;81;21026;-50
2022/01/07 01:47:24;;;;;;;10.48;8.15;;;;;;;-0.38;76.64;94494.61;1701755;82;21010;-51
2022/01/07 01:49:50;;;;;;;12.85;9.28;;;;;;;-0.43;76.85;94491.54;1705216;82;21677;-51
2022/01/07 01:52:16;;;;;;;12.93;9.40;;;;;;;-0.38;77.13;94497.31;1699366;83;21106;-51
2022/01/07 01:54:43;;;;;;;13.98;10.25;;;;;;;-0.32;76.69;94494.45;1727940;81;21956;-51
2022/01/07 01:57:14;;;;;;;12.90;10.75;;;;;;;-0.31;76.35;94508.72;1766927;80;21003;-50
2022/01/07 01:59:40;;;;;;;13.58;10.38;;;;;;;-0.35;76.20;94510.64;1761841;80;21506;-52
2022/01/07 02:02:07;;;;;;;12.88;11.12;;;;;;;-0.32;76.65;94509.88;1744922;80;21081;-51
2022/01/07 02:04:33;;;;;;;13.20;10.30;;;;;;;-0.31;76.29;94525.72;1748727;80;20930;-52
2022/01/07 02:07:00;;;;;;;14.87;10.68;;;;;;;-0.27;76.52;94527.05;1758500;80;21784;-51
2022/01/07 02:09:34;;;;;;;13.53;9.33;;;;;;;-0.23;76.31;94530.56;1775254;80;21042;-51
2022/01/07 02:11:57;;;;;;;14.95;10.08;;;;;;;-0.23;75.98;94532.66;1730342;82;20978;-51
2022/01/07 02:14:25;;;;;;;17.30;11.65;;;;;;;-0.32;75.88;94527.44;1705486;82;21049;-51
2022/01/07 02:17:11;;;;;;;15.15;10.98;;;;;;;-0.39;76.01;94530.89;1706985;82;21109;-53
2022/01/07 02:19:38;;;;;;;31.07;17.65;;;;;;;-0.44;76.09;94546.73;1693567;83;21104;-50
2022/01/07 02:22:12;;;;;;;25.60;14.47;;;;;;;-0.46;76.33;94547.66;1760653;80;20952;-50
2022/01/07 02:24:39;;;;;;;33.08;17.02;;;;;;;-0.46;76.41;94547.66;1778432;80;20982;-51
2022/01/07 02:27:07;;;;;;;29.32;16.73;;;;;;;-0.44;76.41;94545.38;1728590;81;21415;-51
2022/01/07 02:29:36;;;;;;;25.48;14.23;;;;;;;-0.40;76.48;94548.86;1751778;80;20994;-50
2022/01/07 02:32:04;;;;;;;22.52;13.98;;;;;;;-0.30;76.38;94552.15;1728641;80;21131;-51
2022/01/07 02:34:35;;;;;;;24.52;15.28;;;;;;;-0.29;75.69;94559.09;1757703;80;20955;-51
2022/01/07 02:37:02;;;;;;;33.40;17.25;;;;;;;-0.35;75.34;94561.98;1767716;80;20980;-51
2022/01/07 02:39:32;;;;;;;23.22;14.93;;;;;;;-0.44;74.80;94566.99;1759514;80;20975;-51
2022/01/07 02:41:59;;;;;;;14.60;10.25;;;;;;;-0.51;74.28;94567.74;1772337;80;20991;-51
2022/01/07 02:44:25;;;;;;;11.43;8.23;;;;;;;-0.59;73.67;94568.86;1769935;80;21069;-50
2022/01/07 02:46:52;;;;;;;12.43;9.80;;;;;;;-0.68;71.51;94572.50;1758144;80;20979;-52
2022/01/07 02:49:18;;;;;;;14.43;8.40;;;;;;;-0.82;71.35;94583.80;1780085;80;21050;-51
2022/01/07 02:51:46;;;;;;;14.90;10.70;;;;;;;-0.88;71.17;94583.97;1747196;80;20971;-52
2022/01/07 02:54:16;;;;;;;18.92;12.58;;;;;;;-1.00;71.26;94589.13;1771479;80;21084;-49
2022/01/07 02:56:44;;;;;;;29.87;16.40;;;;;;;-1.03;71.21;94583.70;1713445;83;21154;-51
2022/01/07 02:59:11;;;;;;;18.65;11.83;;;;;;;-1.09;71.24;94594.66;1762393;80;20996;-50
2022/01/07 03:01:38;;;;;;;12.80;9.45;;;;;;;-1.11;71.01;94595.61;1725099;81;21543;-51
2022/01/07 03:04:06;;;;;;;13.03;9.43;;;;;;;-1.16;70.44;94614.27;1730513;82;21011;-51
2022/01/07 03:06:34;;;;;;;10.58;7.72;;;;;;;-1.30;70.09;94622.27;1733795;81;20975;-50
2022/01/07 03:09:01;;;;;;;8.40;7.17;;;;;;;-1.50;69.74;94629.06;1728866;81;22004;-50
2022/01/07 03:11:28;;;;;;;9.35;6.87;;;;;;;-1.69;70.07;94637.38;1722156;82;21050;-50
2022/01/07 03:13:54;;;;;;;13.03;8.45;;;;;;;-1.80;70.27;94639.02;1734245;81;21430;-51
2022/01/07 03:16:22;;;;;;;15.40;9.00;;;;;;;-1.90;70.38;94638.34;1724725;81;21038;-51
2022/01/07 03:18:53;;;;;;;27.50;14.98;;;;;;;-2.02;70.43;94646.12;1724796;81;20998;-50
2022/01/07 03:21:20;;;;;;;31.27;15.95;;;;;;;-2.11;70.54;94645.63;1716389;82;21156;-51
2022/01/07 03:23:46;;;;;;;24.00;12.90;;;;;;;-2.14;70.57;94655.80;1766069;80;20923;-49
2022/01/07 03:26:13;;;;;;;14.90;10.32;;;;;;;-2.19;70.89;94654.79;1740946;80;21422;-51
2022/01/07 03:28:43;;;;;;;18.60;12.43;;;;;;;-2.29;71.21;94655.44;1756469;80;20958;-50
2022/01/07 03:31:09;;;;;;;16.30;12.25;;;;;;;-2.32;71.65;94664.25;1768020;80;21069;-52
2022/01/07 03:33:38;;;;;;;17.12;12.33;;;;;;;-2.42;71.41;94665.48;1759730;80;21248;-51
2022/01/07 03:36:04;;;;;;;12.90;10.10;;;;;;;-2.54;71.49;94671.13;1714435;82;20944;-51
2022/01/07 03:38:31;;;;;;;13.98;11.95;;;;;;;-2.67;71.63;94674.59;1738889;80;20943;-52
2022/01/07 03:41:03;;;;;;;15.23;10.50;;;;;;;-2.80;71.89;94680.02;1752117;80;20997;-51
2022/01/07 03:43:30;;;;;;;13.65;10.58;;;;;;;-2.89;72.27;94677.39;1769768;80;21006;-51
2022/01/07 03:45:57;;;;;;;26.02;14.87;;;;;;;-2.90;72.98;94681.98;1766022;80;21153;-51
2022/01/07 03:48:24;;;;;;;18.00;11.65;;;;;;;-2.87;73.08;94686.63;1779922;80;21034;-51
2022/01/07 03:50:52;;;;;;;16.07;11.88;;;;;;;-2.93;72.59;94685.41;1769237;80;21062;-50
2022/01/07 03:53:19;;;;;;;21.60;13.68;;;;;;;-3.04;72.65;94687.73;1737068;81;21003;-51
2022/01/07 03:55:46;;;;;;;17.02;11.88;;;;;;;-3.15;72.70;94688.14;1743548;80;21480;-50
2022/01/07 03:58:12;;;;;;;14.73;10.68;;;;;;;-3.24;72.78;94691.09;1779083;80;21822;-51
2022/01/07 04:00:40;;;;;;;18.25;10.78;;;;;;;-3.26;72.92;94699.33;1728549;80;21046;-51
2022/01/07 04:03:13;;;;;;;15.10;10.70;;;;;;;-3.30;73.02;94697.91;1755529;80;21106;-50
2022/01/07 04:05:41;;;;;;;14.98;10.82;;;;;;;-3.34;73.04;94700.34;1744819;81;21463;-50
2022/01/07 04:08:09;;;;;;;13.95;10.85;;;;;;;-3.36;72.96;94699.37;1732033;81;21046;-52
2022/01/07 04:10:37;;;;;;;19.37;10.98;;;;;;;-3.48;72.53;94706.27;1660847;84;21184;-50
2022/01/07 04:13:07;;;;;;;17.60;12.65;;;;;;;-3.61;72.63;94704.69;1732473;81;20928;-50
2022/01/07 04:15:34;;;;;;;16.85;11.12;;;;;;;-3.73;72.69;94704.30;1692176;83;21167;-50
2022/01/07 04:18:01;;;;;;;20.95;12.60;;;;;;;-3.83;72.70;94710.83;1686132;83;21089;-52
2022/01/07 04:20:31;;;;;;;17.98;12.00;;;;;;;-3.97;73.14;94713.25;1756998;80;21046;-51
2022/01/07 04:22:58;;;;;;;17.48;11.73;;;;;;;-3.98;73.49;94717.08;1766019;80;21178;-52
2022/01/07 04:25:26;;;;;;;16.90;11.05;;;;;;;-3.98;73.39;94722.45;1748784;81;20951;-51
2022/01/07 04:27:57;;;;;;;16.82;10.93;;;;;;;-4.01;72.99;94722.61;1756041;80;20986;-50
2022/01/07 04:30:24;;;;;;;15.88;12.18;;;;;;;-4.05;73.09;94722.33;1780088;80;21011;-50
2022/01/07 04:32:52;;;;;;;20.70;13.75;;;;;;;-4.08;73.36;94726.49;1767395;80;21005;-50
2022/01/07 04:35:19;;;;;;;56.48;28.12;;;;;;;-4.03;73.83;94720.06;1773713;80;21134;-51
2022/01/07 04:37:45;;;;;;;38.20;22.35;;;;;;;-4.01;73.60;94723.16;1750072;80;21430;-51
2022/01/07 04:40:14;;;;;;;25.05;17.05;;;;;;;-4.05;73.60;94726.36;1742803;80;20959;-51
2022/01/07 04:42:46;;;;;;;37.98;17.98;;;;;;;-4.21;73.60;94725.08;1770077;80;21125;-50
2022/01/07 04:45:14;;;;;;;37.30;19.32;;;;;;;-4.38;73.80;94736.25;1769120;80;21039;-51
2022/01/07 04:47:45;;;;;;;46.83;22.48;;;;;;;-4.48;73.99;94730.12;1742702;82;21925;-51
2022/01/07 04:50:15;;;;;;;37.17;20.65;;;;;;;-4.48;74.41;94738.72;1732996;82;20967;-51
2022/01/07 04:52:44;;;;;;;35.35;20.37;;;;;;;-4.45;74.32;94738.04;1697430;82;21065;-51
2022/01/07 04:55:17;;;;;;;38.73;22.67;;;;;;;-4.45;73.76;94735.35;1720366;82;21038;-52
2022/01/07 04:57:44;;;;;;;47.88;26.97;;;;;;;-4.53;73.55;94743.03;1758855;80;21461;-51
2022/01/07 05:00:12;;;;;;;47.10;24.10;;;;;;;-4.61;73.74;94738.08;1741771;82;21474;-51
2022/01/07 05:02:39;;;;;;;40.78;23.12;;;;;;;-4.62;73.79;94737.87;1715293;82;21003;-51
2022/01/07 05:05:07;;;;;;;42.25;23.32;;;;;;;-4.62;73.94;94741.89;1723134;82;21420;-52
2022/01/07 05:07:37;;;;;;;37.23;22.42;;;;;;;-4.58;74.20;94754.05;1759534;80;21536;-51
2022/01/07 05:10:10;;;;;;;31.00;18.17;;;;;;;-4.54;74.01;94756.23;1755222;80;21424;-51
2022/01/07 05:12:37;;;;;;;42.23;23.35;;;;;;;-4.57;73.82;94760.97;1767959;80;21917;-52
2022/01/07 05:15:06;;;;;;;49.53;25.20;;;;;;;-4.58;73.66;94756.73;1744081;80;21496;-51
2022/01/07 05:17:33;;;;;;;44.30;23.77;;;;;;;-4.64;73.47;94756.81;1752332;80;20987;-51
2022/01/07 05:20:00;;;;;;;29.02;18.17;;;;;;;-4.67;73.42;94760.17;1671426;83;21018;-51
2022/01/07 05:22:28;;;;;;;23.60;15.43;;;;;;;-4.69;73.11;94770.48;1689769;83;21078;-51
2022/01/07 05:24:55;;;;;;;45.23;20.55;;;;;;;-4.74;73.20;94766.73;1756104;80;21148;-50
2022/01/07 05:27:21;;;;;;;44.63;23.02;;;;;;;-4.70;73.28;94771.61;1765172;80;21462;-50
2022/01/07 05:29:48;;;;;;;51.05;26.25;;;;;;;-4.69;73.05;94767.80;1764140;80;20991;-51
2022/01/07 05:32:14;;;;;;;77.15;34.03;;;;;;;-4.69;73.23;94771.81;1717048;80;21034;-52
2022/01/07 05:34:41;;;;;;;106.07;42.75;;;;;;;-4.76;72.89;94771.67;1742107;81;21057;-49
2022/01/07 05:37:10;;;;;;;74.77;35.40;;;;;;;-4.87;72.91;94776.02;1767739;80;21192;-51
2022/01/07 05:39:37;;;;;;;48.52;26.35;;;;;;;-4.93;73.29;94776.08;1758582;80;21073;-50
2022/01/07 05:42:06;;;;;;;39.80;20.52;;;;;;;-4.96;72.85;94774.09;1759364;80;20997;-51
2022/01/07 05:44:34;;;;;;;38.10;19.70;;;;;;;-5.09;72.28;94775.32;1780141;80;20990;-50
2022/01/07 05:47:01;;;;;;;35.75;20.82;;;;;;;-5.25;72.18;94777.23;1756687;80;20986;-50
2022/01/07 05:49:27;;;;;;;34.75;19.98;;;;;;;-5.32;72.57;94777.62;1763891;80;21075;-50
2022/01/07 05:51:55;;;;;;;38.35;20.27;;;;;;;-5.32;72.72;94783.77;1745385;81;20965;-51
2022/01/07 05:54:23;;;;;;;34.92;18.95;;;;;;;-5.28;72.61;94786.55;1769512;80;21442;-51
2022/01/07 05:56:51;;;;;;;27.90;18.57;;;;;;;-5.21;72.77;94794.17;1756053;80;20994;-51
2022/01/07 05:59:18;;;;;;;36.95;20.85;;;;;;;-5.16;72.67;94789.91;1761867;80;21044;-52
2022/01/07 06:01:47;;;;;;;66.87;31.77;;;;;;;-5.13;72.74;94802.61;1758598;80;21145;-57
2022/01/07 06:04:13;;;;;;;62.38;32.28;;;;;;;-5.13;72.31;94809.31;1731412;81;20955;-50
2022/01/07 06:06:41;;;;;;;90.55;47.27;;;;;;;-5.19;72.38;94817.42;1729716;81;21431;-51
2022/01/07 06:09:08;;;;;;;141.00;67.53;;;;;;;-5.26;72.14;94818.56;1691250;83;21108;-51
2022/01/07 06:11:34;;;;;;;122.65;57.43;;;;;;;-5.38;71.90;94820.55;1723110;81;21002;-49
2022/01/07 06:14:03;;;;;;;132.47;61.37;;;;;;;-5.61;71.82;94827.63;1730616;82;21454;-51
2022/01/07 06:16:30;;;;;;;136.22;66.25;;;;;;;-5.77;71.96;94829.48;1719825;81;20998;-51
2022/01/07 06:18:59;;;;;;;102.78;54.18;;;;;;;-5.87;72.17;94826.77;1729697;81;20982;-50
2022/01/07 06:21:26;;;;;;;93.40;47.38;;;;;;;-5.83;72.92;94832.23;1741736;82;21426;-50
2022/01/07 06:23:53;;;;;;;87.17;41.80;;;;;;;-5.69;72.94;94836.03;1726225;82;21423;-50
2022/01/07 06:26:21;;;;;;;85.62;42.08;;;;;;;-5.58;72.29;94833.05;1724653;82;21160;-49
2022/01/07 06:28:49;;;;;;;93.22;44.53;;;;;;;-5.49;71.98;94838.25;1724468;81;21121;-52
2022/01/07 06:31:18;;;;;;;135.50;68.22;;;;;;;-5.44;71.49;94840.70;1719841;82;21022;-52
2022/01/07 06:33:45;;;;;;;122.15;59.73;;;;;;;-5.39;71.46;94839.86;1741577;81;20990;-52
2022/01/07 06:36:11;;;;;;;113.60;55.90;;;;;;;-5.33;71.42;94849.22;1763107;80;22272;-50
2022/01/07 06:38:38;;;;;;;162.47;74.03;;;;;;;-5.26;71.46;94853.41;1689975;80;21826;-50
2022/01/07 06:41:05;;;;;;;301.45;160.32;;;;;;;-5.32;70.87;94858.81;1734710;80;20969;-52
2022/01/07 06:43:31;;;;;;;152.62;80.20;;;;;;;-5.45;70.43;94859.24;1761761;80;21497;-50
2022/01/07 06:45:58;;;;;;;160.12;73.70;;;;;;;-5.60;70.53;94868.78;1754365;81;21023;-51
2022/01/07 06:48:25;;;;;;;133.22;67.75;;;;;;;-5.64;70.88;94866.58;1751195;80;20951;-50
2022/01/07 06:50:52;;;;;;;130.37;62.35;;;;;;;-5.57;70.91;94866.00;1728829;80;21141;-52
2022/01/07 06:53:20;;;;;;;153.32;76.92;;;;;;;-5.51;70.53;94869.97;1769967;80;21143;-51
2022/01/07 06:55:49;;;;;;;139.07;70.72;;;;;;;-5.58;70.48;94879.17;1728467;81;21058;-50
2022/01/07 06:58:18;;;;;;;124.53;65.50;;;;;;;-5.66;70.88;94882.77;1765369;80;20965;-51
2022/01/07 07:00:45;;;;;;;137.95;66.15;;;;;;;-5.58;72.00;94891.23;1752952;80;20962;-52
2022/01/07 07:03:14;;;;;;;163.77;80.55;;;;;;;-5.47;71.36;94870.84;1726518;80;21103;-51
2022/01/07 07:05:41;;;;;;;189.90;94.37;;;;;;;-5.53;70.71;94881.59;1773585;80;20938;-52
2022/01/07 07:08:07;;;;;;;230.77;113.55;;;;;;;-5.60;70.81;94877.40;1758142;80;21101;-52
2022/01/07 07:10:36;;;;;;;174.25;87.02;;;;;;;-5.51;71.17;94872.66;1755226;80;21577;-51
2022/01/07 07:13:02;;;;;;;177.85;88.37;;;;;;;-5.35;71.12;94879.61;1767663;80;21049;-51
2022/01/07 07:15:29;;;;;;;185.88;88.50;;;;;;;-5.32;70.55;94880.81;1752735;80;21162;-51
2022/01/07 07:18:01;;;;;;;340.07;151.07;;;;;;;-5.40;70.43;94887.88;1726948;81;20999;-51
2022/01/07 07:20:31;;;;;;;231.25;108.15;;;;;;;-5.48;70.61;94891.52;1755036;80;21007;-51
2022/01/07 07:22:59;;;;;;;219.62;112.12;;;;;;;-5.43;71.37;94887.23;1767498;80;21068;-51
2022/01/07 07:25:26;;;;;;;244.10;115.30;;;;;;;-5.23;71.16;94895.61;1764104;80;20944;-51
2022/01/07 07:27:52;;;;;;;158.68;87.12;;;;;;;-5.07;71.11;94897.75;1772062;80;21079;-51
2022/01/07 07:30:19;;;;;;;286.73;137.72;;;;;;;-4.97;70.72;94901.27;1769576;80;21018;-51
2022/01/07 07:32:47;;;;;;;351.18;174.38;;;;;;;-4.96;70.85;94897.46;1761807;80;20955;-51
2022/01/07 07:37:52;;;;;;;196.05;105.55;;;;;;;-4.68;70.83;94894.11;1773682;80;20946;-51
2022/01/07 07:40:19;;;;;;;173.60;92.70;;;;;;;-4.53;70.64;94902.72;1763763;80;21723;-51
2022/01/07 07:42:45;;;;;;;167.82;95.12;;;;;;;-4.43;70.23;94902.20;1720024;82;21515;-51
2022/01/07 07:45:16;;;;;;;151.72;84.65;;;;;;;-4.47;70.11;94910.16;1732111;81;21189;-52
2022/01/07 07:47:43;;;;;;;183.22;96.70;;;;;;;-4.53;70.17;94908.08;1763791;80;20943;-53
2022/01/07 07:50:11;;;;;;;163.87;89.30;;;;;;;-4.56;70.27;94914.94;1749961;81;21186;-51
2022/01/07 07:52:39;;;;;;;169.40;91.40;;;;;;;-4.56;70.46;94912.81;1754928;80;21843;-52
2022/01/07 07:55:09;;;;;;;160.37;93.72;;;;;;;-4.58;70.43;94914.48;1756414;80;21055;-52
2022/01/07 07:57:35;;;;;;;187.95;99.07;;;;;;;-4.56;70.67;94917.63;1760564;80;21002;-51
2022/01/07 08:00:07;;;;;;;180.00;100.02;;;;;;;-4.40;70.54;94914.91;1757914;80;21462;-52
2022/01/07 08:02:35;;;;;;;157.80;85.92;;;;;;;-4.24;70.44;94922.39;1755567;80;21013;-50
2022/01/07 08:05:05;;;;;;;252.40;127.07;;;;;;;-4.10;70.14;94925.36;1766741;80;21238;-51
2022/01/07 08:07:32;;;;;;;249.12;126.90;;;;;;;-3.93;69.80;94939.75;1770552;80;20948;-52
2022/01/07 08:10:00;;;;;;;145.65;79.20;;;;;;;-3.82;69.23;94936.19;1750904;80;20994;-52
2022/01/07 08:12:50;;;;;;;173.10;85.00;;;;;;;-3.73;68.70;94937.33;1755674;80;20959;-53
2022/01/07 08:17:40;;;;;;;135.72;69.75;;;;;;;-3.62;68.14;94935.08;1750947;80;22370;-49
2022/01/07 08:20:08;;;;;;;131.80;68.37;;;;;;;-3.52;67.93;94932.39;1742160;81;21089;-52
2022/01/07 08:22:35;;;;;;;113.50;63.78;;;;;;;-3.39;67.70;94936.68;1771009;80;20951;-50
2022/01/07 08:25:05;;;;;;;146.82;75.25;;;;;;;-3.36;67.55;94929.27;1778369;80;20994;-52
2022/01/07 08:27:32;;;;;;;165.45;87.27;;;;;;;-3.37;67.35;94939.81;1757883;80;21007;-52
2022/01/07 08:30:11;;;;;;;114.47;60.95;;;;;;;-3.45;67.45;94937.34;1765754;80;21377;-52
2022/01/07 08:35:11;;;;;;;94.52;53.80;;;;;;;-3.38;67.91;94936.89;1650829;80;20998;-52
2022/01/07 08:37:38;;;;;;;84.62;46.40;;;;;;;-3.09;67.82;94936.89;1766959;80;21085;-52
2022/01/07 08:40:06;;;;;;;76.00;37.10;;;;;;;-2.88;67.02;94932.66;1756700;80;21065;-52
2022/01/07 08:42:33;;;;;;;53.28;30.82;;;;;;;-2.74;66.93;94926.73;1712620;82;21168;-51
2022/01/07 08:45:00;;;;;;;88.55;45.70;;;;;;;-2.67;66.24;94929.57;1697567;83;21093;-51
2022/01/07 08:47:28;;;;;;;66.85;37.38;;;;;;;-2.60;66.19;94926.44;1762233;80;21447;-52
2022/01/07 08:49:55;;;;;;;61.55;34.10;;;;;;;-2.38;65.99;94929.67;1761385;80;20966;-51
2022/01/07 08:52:22;;;;;;;49.00;29.18;;;;;;;-2.34;65.51;94922.42;1763185;80;20947;-51
2022/01/07 08:54:50;;;;;;;65.00;38.40;;;;;;;-2.23;65.54;94925.28;1765249;80;21111;-51
2022/01/07 08:57:19;;;;;;;61.63;37.10;;;;;;;-2.14;65.35;94923.88;1771182;80;21028;-52
2022/01/07 08:59:49;;;;;;;76.50;41.35;;;;;;;-2.00;64.94;94926.80;1773953;80;21430;-54
2022/01/07 09:02:21;;;;;;;80.87;44.55;;;;;;;-1.84;64.83;94927.97;1768446;80;21031;-53
2022/01/07 09:04:48;;;;;;;76.67;44.13;;;;;;;-1.56;64.55;94922.38;1768960;80;21572;-53
2022/01/07 09:07:14;;;;;;;99.85;57.03;;;;;;;-1.28;63.54;94922.74;1769910;80;21415;-53
2022/01/07 09:09:41;;;;;;;118.28;66.33;;;;;;;-1.09;63.02;94921.23;1747415;80;21037;-53
2022/01/07 09:12:09;;;;;;;108.40;57.75;;;;;;;-0.84;62.84;94919.56;1773712;80;21003;-52
2022/01/07 09:14:36;;;;;;;83.82;46.10;;;;;;;-0.57;61.77;94909.59;1768224;80;21420;-52
2022/01/07 09:17:04;;;;;;;83.05;45.85;;;;;;;-0.41;61.15;94908.78;1757884;80;21086;-54
2022/01/07 09:19:32;;;;;;;94.20;48.78;;;;;;;-0.30;60.28;94905.60;1762187;80;21135;-53
2022/01/07 09:21:59;;;;;;;70.08;39.63;;;;;;;-0.29;60.03;94902.30;1767403;80;21434;-51
2022/01/07 09:24:27;;;;;;;54.95;31.25;;;;;;;-0.21;59.86;94907.98;1758599;80;20956;-51
2022/01/07 09:26:58;;;;;;;57.13;32.53;;;;;;;-0.16;59.42;94899.52;1768259;80;20944;-53
2022/01/07 09:29:26;;;;;;;64.20;36.13;;;;;;;-0.02;59.33;94896.92;1747018;80;20934;-52
2022/01/07 09:31:54;;;;;;;43.28;25.90;;;;;;;0.30;58.89;94898.09;1754762;80;21142;-52
2022/01/07 09:34:21;;;;;;;33.38;21.10;;;;;;;0.59;58.53;94905.78;1758989;80;21520;-51
2022/01/07 09:36:48;;;;;;;37.53;23.38;;;;;;;0.65;58.06;94906.96;1764139;80;21026;-51
2022/01/07 09:39:14;;;;;;;30.50;20.12;;;;;;;0.70;58.29;94902.53;1779982;80;20958;-56
2022/01/07 09:41:49;;;;;;;30.62;19.37;;;;;;;0.97;57.94;94899.15;1704880;82;21211;-54
2022/01/07 09:44:17;;;;;;;33.38;20.80;;;;;;;1.20;56.96;94898.27;1734639;81;21111;-50
2022/01/07 09:46:44;;;;;;;39.83;24.75;;;;;;;1.21;56.39;94893.05;1770737;80;21006;-52
2022/01/07 09:49:11;;;;;;;34.48;22.95;;;;;;;1.20;56.47;94883.93;1754866;80;21099;-51
2022/01/07 09:51:39;;;;;;;30.27;21.12;;;;;;;1.38;56.97;94888.80;1736673;80;21085;-51
2022/01/07 09:54:09;;;;;;;37.30;23.40;;;;;;;1.71;56.83;94876.25;1741963;82;21454;-53
2022/01/07 09:56:38;;;;;;;38.23;24.50;;;;;;;2.10;56.30;94879.90;1721617;82;20948;-52
2022/01/07 09:59:06;;;;;;;42.43;26.02;;;;;;;2.25;54.85;94880.08;1729762;80;21113;-52
2022/01/07 10:02:01;;;;;;;72.35;40.33;;;;;;;2.09;54.05;94882.98;1745836;80;20991;-53
2022/01/07 10:04:40;;;;;;;62.80;34.15;;;;;;;1.74;55.07;94878.37;1766135;80;21537;-52
2022/01/07 10:07:26;;;;;;;66.53;37.45;;;;;;;1.57;55.39;94874.88;1744725;80;20985;-52
2022/01/07 10:10:19;;;;;;;73.80;40.50;;;;;;;1.44;55.78;94870.42;1760161;80;21807;-52
2022/01/07 10:13:06;;;;;;;56.70;32.70;;;;;;;1.21;55.92;94864.59;1749321;80;20985;-52
2022/01/07 10:15:36;;;;;;;65.37;37.98;;;;;;;1.18;55.89;94865.34;1767988;80;20995;-55
2022/01/07 10:18:07;;;;;;;60.15;36.88;;;;;;;1.42;56.19;94859.20;1758984;80;21029;-52
2022/01/07 10:20:47;;;;;;;55.28;31.85;;;;;;;1.77;55.86;94855.14;1765551;80;25078;-52
2022/01/07 10:23:17;;;;;;;45.43;28.50;;;;;;;2.27;54.86;94857.95;1753808;81;21140;-51
2022/01/07 10:25:45;;;;;;;48.52;31.48;;;;;;;2.55;54.17;94857.32;1727780;81;20939;-51
2022/01/07 10:28:19;;;;;;;62.83;38.05;;;;;;;2.47;53.39;94857.73;1696512;83;21082;-51
2022/01/07 10:30:50;;;;;;;67.20;39.20;;;;;;;2.29;53.80;94852.94;1744873;80;20979;-52
2022/01/07 10:33:30;;;;;;;57.17;34.63;;;;;;;2.11;53.59;94850.84;1765844;80;20986;-51
2022/01/07 10:36:00;;;;;;;55.63;31.25;;;;;;;2.04;53.94;94854.91;1762207;80;21176;-52
2022/01/07 10:38:28;;;;;;;43.45;25.37;;;;;;;2.18;53.64;94848.10;1764434;80;21562;-53
2022/01/07 10:41:00;;;;;;;44.58;25.75;;;;;;;2.31;53.30;94851.95;1755490;80;21005;-53
2022/01/07 10:43:34;;;;;;;43.28;26.60;;;;;;;2.70;53.15;94847.17;1760805;80;21057;-55
2022/01/07 10:46:19;;;;;;;46.55;28.62;;;;;;;3.27;51.68;94834.83;1754580;80;20978;-56
2022/01/07 10:48:58;;;;;;;43.65;25.52;;;;;;;3.42;50.76;94843.08;1718599;82;21170;-52
2022/01/07 10:51:28;;;;;;;49.55;29.20;;;;;;;3.42;50.62;94845.80;1701436;82;21121;-51
2022/01/07 10:54:01;;;;;;;42.23;25.77;;;;;;;3.49;50.75;94841.84;1754528;80;21096;-51
2022/01/07 10:56:40;;;;;;;37.17;23.57;;;;;;;3.93;50.49;94835.67;1756655;80;21081;-51
2022/01/07 10:59:12;;;;;;;34.75;22.27;;;;;;;4.43;49.33;94836.74;1737655;80;21502;-53
2022/01/07 11:01:42;;;;;;;33.80;21.77;;;;;;;4.92;48.02;94831.48;1765051;80;21139;-53
2022/01/07 11:04:17;;;;;;;28.02;19.95;;;;;;;5.12;47.32;94835.11;1720068;81;21140;-55
2022/01/07 11:06:47;;;;;;;32.45;20.30;;;;;;;5.13;46.94;94828.47;1756571;80;20946;-53
2022/01/07 11:09:17;;;;;;;46.63;27.37;;;;;;;5.16;46.87;94822.20;1770233;80;21422;-52
2022/01/07 11:11:55;;;;;;;32.17;20.52;;;;;;;5.64;46.47;94825.39;1779035;80;26879;-52
2022/01/07 11:14:25;;;;;;;15.83;11.45;;;;;;;6.06;45.54;94824.73;1761756;80;22378;-52
2022/01/07 11:16:54;;;;;;;12.75;10.03;;;;;;;6.13;44.90;94827.36;1751794;80;21557;-52
2022/01/07 11:19:23;;;;;;;11.12;8.28;;;;;;;6.05;44.28;94823.97;1779119;80;21509;-53
2022/01/07 11:21:54;;;;;;;15.15;10.85;;;;;;;5.88;44.68;94833.23;1717724;82;21538;-53
2022/01/07 11:24:40;;;;;;;14.65;10.45;;;;;;;5.87;44.65;94824.86;1701443;82;37216;-55
2022/01/07 11:27:16;;;;;;;14.43;9.73;;;;;;;5.76;44.74;94829.67;1730435;81;21156;-52
2022/01/07 11:30:11;;;;;;;16.95;10.55;;;;;;;5.57;45.20;94825.52;1731945;80;21286;-54
2022/01/07 11:32:47;;;;;;;17.27;11.28;;;;;;;5.45;45.83;94835.63;1759366;80;21009;-51